Time;durP1;ratioP1;P1;durP2;ratioP2;P2;SDS_P1;SDS_P2;PMS_P1;PMS_P2;Temp;Humidity;BMP_temperature;BMP_pressure;BME280_temperature;BME280_humidity;BME280_pressure;Samples;Min_cycle;Max_cycle;Signal;HPM_P1;HPM_P2
2022/09/05 00:02:02;;;;;;;;;;;;;;;18.75;55.28;102081.91;5018138;28;19913;-71
2022/09/05 00:04:36;;;;;;;;;;;;;;;18.59;55.79;102071.88;5025428;28;19909;-71
2022/09/05 00:07:11;;;;;;;;;;;;;;;18.63;55.73;102078.69;5021495;28;19913;-73
2022/09/05 00:09:36;;;;;;;;;;;;;;;18.75;55.35;102077.28;4993647;28;19910;-74
2022/09/05 00:12:03;;;;;;;;;;;;;;;18.63;55.92;102079.53;4995041;28;19920;-71
2022/09/05 00:14:47;;;;;;;;;;;;;;;18.53;55.97;102084.44;4992274;28;20000;-73
2022/09/05 00:17:30;;;;;;;;;;;;;;;18.46;56.11;102088.94;4994543;28;19939;-71
2022/09/05 00:20:02;;;;;;;;;;;;;;;18.63;55.64;102084.19;4995203;28;19909;-72
2022/09/05 00:22:46;;;;;;;;;;;;;;;18.47;56.20;102074.19;4994797;28;20004;-71
2022/09/05 00:25:31;;;;;;;;;;;;;;;18.37;56.47;102084.50;4994918;28;19955;-71
2022/09/05 00:28:00;;;;;;;;;;;;;;;18.29;56.85;102076.34;4994627;28;19910;-72
2022/09/05 00:30:29;;;;;;;;;;;;;;;18.21;56.98;102084.63;5022001;28;19913;-72
2022/09/05 00:33:00;;;;;;;;;;;;;;;18.21;57.00;102079.13;5017906;28;19909;-69
2022/09/05 00:35:36;;;;;;;;;;;;;;;18.08;57.49;102080.56;5007397;28;19940;-70
2022/09/05 00:38:11;;;;;;;;;;;;;;;18.30;56.88;102084.38;5014212;28;19914;-71
2022/09/05 00:40:38;;;;;;;;;;;;;;;18.12;57.42;102087.38;5006563;28;19909;-73
2022/09/05 00:43:10;;;;;;;;;;;;;;;18.06;57.46;102088.13;5010825;28;19918;-71
2022/09/05 00:45:43;;;;;;;;;;;;;;;18.04;57.69;102084.69;4987335;28;19968;-72
2022/09/05 00:48:27;;;;;;;;;;;;;;;18.05;57.81;102086.38;4974559;28;19916;-72
2022/09/05 00:50:59;;;;;;;;;;;;;;;18.08;57.65;102086.03;4974767;28;19910;-72
2022/09/05 00:53:43;;;;;;;;;;;;;;;17.90;58.10;102099.13;4974800;28;20420;-71
2022/09/05 00:56:41;;;;;;;;;;;;;;;17.94;58.02;102095.00;4974461;28;19913;-71
2022/09/05 00:59:25;;;;;;;;;;;;;;;18.10;57.62;102100.41;4953640;28;19921;-72
2022/09/05 01:02:05;;;;;;;;;;;;;;;18.13;57.52;102110.19;5025145;28;19909;-70
2022/09/05 01:04:43;;;;;;;;;;;;;;;18.04;57.50;102101.13;5011168;28;19910;-73
2022/09/05 01:07:17;;;;;;;;;;;;;;;18.18;57.13;102107.75;5011148;28;19913;-72
2022/09/05 01:09:55;;;;;;;;;;;;;;;17.90;58.33;102104.59;5011499;28;19909;-72
2022/09/05 01:12:30;;;;;;;;;;;;;;;17.99;57.75;102103.53;4991170;28;19956;-71
2022/09/05 01:15:18;;;;;;;;;;;;;;;17.78;58.60;102103.25;5023841;28;20359;-72
2022/09/05 01:17:52;;;;;;;;;;;;;;;17.77;58.77;102107.03;5010883;28;19920;-71
2022/09/05 01:20:36;;;;;;;;;;;;;;;17.64;59.09;102105.66;5009813;28;19909;-72
2022/09/05 01:23:17;;;;;;;;;;;;;;;17.73;58.81;102102.94;5009865;28;19938;-72
2022/09/05 01:25:48;;;;;;;;;;;;;;;17.71;58.92;102099.50;4993957;28;19913;-73
2022/09/05 01:28:13;;;;;;;;;;;;;;;17.70;58.88;102103.25;4993547;28;19949;-73
2022/09/05 01:31:02;;;;;;;;;;;;;;;17.68;58.98;102094.38;4993361;28;20404;-70
2022/09/05 01:33:33;;;;;;;;;;;;;;;17.60;59.08;102096.09;4987865;28;19919;-73
2022/09/05 01:36:17;;;;;;;;;;;;;;;17.53;59.31;102091.47;4993499;28;19909;-72
2022/09/05 01:38:43;;;;;;;;;;;;;;;17.34;60.08;102093.59;5026246;28;19913;-71
2022/09/05 01:41:27;;;;;;;;;;;;;;;17.59;59.29;102096.25;4993725;28;20008;-73
2022/09/05 01:44:16;;;;;;;;;;;;;;;17.47;59.68;102087.53;5001640;28;19968;-72
2022/09/05 01:46:59;;;;;;;;;;;;;;;17.48;59.55;102100.22;5009639;28;19913;-71
2022/09/05 01:49:37;;;;;;;;;;;;;;;17.51;59.53;102097.13;4993422;28;19909;-72
2022/09/05 01:52:11;;;;;;;;;;;;;;;17.44;59.83;102098.84;4993454;28;19911;-72
2022/09/05 01:54:44;;;;;;;;;;;;;;;17.43;59.54;102091.69;4993163;28;19929;-72
2022/09/05 01:57:19;;;;;;;;;;;;;;;17.39;60.07;102090.31;4993181;28;19917;-72
2022/09/05 01:59:50;;;;;;;;;;;;;;;17.30;60.06;102091.34;4992836;28;19968;-70
2022/09/05 02:02:22;;;;;;;;;;;;;;;17.35;60.07;102081.59;5025652;28;19909;-71
2022/09/05 02:05:10;;;;;;;;;;;;;;;17.39;59.84;102084.81;5025262;28;19917;-71
2022/09/05 02:07:56;;;;;;;;;;;;;;;17.21;60.46;102086.91;4992330;28;20008;-72
2022/09/05 02:10:37;;;;;;;;;;;;;;;17.28;60.08;102082.47;4992509;28;19910;-72
2022/09/05 02:13:21;;;;;;;;;;;;;;;17.29;60.08;102084.19;4992662;28;19945;-71
2022/09/05 02:16:01;;;;;;;;;;;;;;;17.19;60.31;102080.75;4992697;28;19996;-71
2022/09/05 02:18:29;;;;;;;;;;;;;;;17.20;60.41;102085.19;5009973;28;19920;-72
2022/09/05 02:20:57;;;;;;;;;;;;;;;17.08;60.58;102077.34;5010333;28;19965;-72
2022/09/05 02:23:41;;;;;;;;;;;;;;;17.30;60.10;102081.25;4992817;28;19915;-73
2022/09/05 02:26:11;;;;;;;;;;;;;;;17.12;60.25;102082.47;5010244;28;20280;-73
2022/09/05 02:28:55;;;;;;;;;;;;;;;17.20;60.30;102079.72;4992219;28;19909;-72
2022/09/05 02:31:40;;;;;;;;;;;;;;;17.26;60.07;102084.50;5025361;28;19909;-72
2022/09/05 02:34:09;;;;;;;;;;;;;;;17.20;60.24;102079.72;5026309;28;19920;-72
2022/09/05 02:36:47;;;;;;;;;;;;;;;17.36;59.52;102079.72;5010525;28;20111;-72
2022/09/05 02:39:31;;;;;;;;;;;;;;;17.37;59.71;102075.94;5009695;28;19917;-71
2022/09/05 02:42:07;;;;;;;;;;;;;;;17.26;60.01;102084.50;5025575;28;19913;-71
2022/09/05 02:44:35;;;;;;;;;;;;;;;17.18;60.27;102076.31;5003809;28;19944;-73
2022/09/05 02:47:00;;;;;;;;;;;;;;;17.24;60.12;102078.34;4989064;28;20044;-72
2022/09/05 02:49:44;;;;;;;;;;;;;;;17.17;60.13;102063.66;5006446;28;20001;-71
2022/09/05 02:52:12;;;;;;;;;;;;;;;17.23;59.93;102057.50;4992566;28;19909;-71
2022/09/05 02:54:42;;;;;;;;;;;;;;;17.17;60.27;102058.19;5010337;28;19917;-71
2022/09/05 02:57:25;;;;;;;;;;;;;;;17.11;60.29;102058.88;4991769;28;19924;-71
2022/09/05 02:59:53;;;;;;;;;;;;;;;17.22;59.87;102055.78;4991833;28;19999;-72
2022/09/05 03:02:37;;;;;;;;;;;;;;;17.25;59.71;102055.44;4992229;28;19940;-72
2022/09/05 03:05:13;;;;;;;;;;;;;;;17.29;59.42;102057.66;5008569;28;19910;-71
2022/09/05 03:07:50;;;;;;;;;;;;;;;17.22;59.71;102042.09;4992112;28;19952;-70
2022/09/05 03:10:24;;;;;;;;;;;;;;;17.17;59.80;102047.22;4992408;28;19909;-73
2022/09/05 03:12:59;;;;;;;;;;;;;;;17.08;59.79;102049.97;4988709;28;19913;-72
2022/09/05 03:15:42;;;;;;;;;;;;;;;17.19;59.69;102046.00;5003089;28;19963;-72
2022/09/05 03:18:10;;;;;;;;;;;;;;;17.17;59.61;102047.22;5009075;28;19920;-72
2022/09/05 03:20:54;;;;;;;;;;;;;;;17.32;59.09;102051.81;4992277;28;19910;-72
2022/09/05 03:23:49;;;;;;;;;;;;;;;17.19;59.38;102042.44;5008223;28;19909;-73
2022/09/05 03:26:24;;;;;;;;;;;;;;;17.26;59.37;102052.50;4976024;28;20020;-72
2022/09/05 03:28:52;;;;;;;;;;;;;;;17.30;59.09;102047.56;5012864;28;19916;-71
2022/09/05 03:31:29;;;;;;;;;;;;;;;17.45;58.59;102050.41;4995858;28;19910;-70
2022/09/05 03:34:13;;;;;;;;;;;;;;;17.36;58.69;102046.84;4996253;28;19909;-71
2022/09/05 03:36:41;;;;;;;;;;;;;;;17.44;58.64;102049.56;5013030;28;19979;-71
2022/09/05 03:39:33;;;;;;;;;;;;;;;17.45;58.58;102051.28;4995855;28;19975;-71
2022/09/05 03:42:09;;;;;;;;;;;;;;;17.58;58.13;102046.09;4972829;28;19909;-71
2022/09/05 03:44:35;;;;;;;;;;;;;;;17.58;58.17;102057.06;5002604;28;20278;-71
2022/09/05 03:47:13;;;;;;;;;;;;;;;17.45;58.55;102062.22;4992396;28;19969;-71
2022/09/05 03:49:57;;;;;;;;;;;;;;;17.37;58.75;102059.50;4994084;28;19949;-73
2022/09/05 03:52:42;;;;;;;;;;;;;;;17.28;59.08;102055.09;4995288;28;19956;-72
2022/09/05 03:55:18;;;;;;;;;;;;;;;17.33;58.91;102058.13;4995329;28;19909;-72
2022/09/05 03:58:06;;;;;;;;;;;;;;;17.41;58.80;102060.00;4995176;28;20004;-71
2022/09/05 04:00:32;;;;;;;;;;;;;;;17.36;58.84;102063.28;5007151;28;20007;-72
2022/09/05 04:03:10;;;;;;;;;;;;;;;17.31;58.59;102066.53;5007925;28;19909;-71
2022/09/05 04:05:41;;;;;;;;;;;;;;;17.31;58.82;102066.53;5011367;28;19968;-71
2022/09/05 04:08:18;;;;;;;;;;;;;;;17.27;58.89;102064.31;5011905;28;19909;-70
2022/09/05 04:10:58;;;;;;;;;;;;;;;17.30;58.96;102063.97;4994941;28;19920;-72
2022/09/05 04:13:24;;;;;;;;;;;;;;;17.42;58.67;102057.13;5012295;28;19919;-72
2022/09/05 04:16:02;;;;;;;;;;;;;;;17.51;58.18;102066.16;4995281;28;19909;-72
2022/09/05 04:18:35;;;;;;;;;;;;;;;17.55;57.80;102068.38;4994191;28;19959;-72
2022/09/05 04:21:03;;;;;;;;;;;;;;;17.44;58.37;102071.47;5012495;28;19918;-70
2022/09/05 04:23:47;;;;;;;;;;;;;;;17.48;58.06;102067.38;4994982;28;19909;-72
2022/09/05 04:26:31;;;;;;;;;;;;;;;17.44;58.09;102071.47;5012591;28;19917;-70
2022/09/05 04:29:16;;;;;;;;;;;;;;;17.35;58.67;102073.38;4994428;28;19909;-73
2022/09/05 04:31:55;;;;;;;;;;;;;;;17.27;58.84;102067.91;4994363;28;19909;-72
2022/09/05 04:34:23;;;;;;;;;;;;;;;17.30;58.52;102074.94;4994701;28;19909;-71
2022/09/05 04:36:58;;;;;;;;;;;;;;;17.34;58.49;102076.28;5011645;28;19909;-72
2022/09/05 04:39:25;;;;;;;;;;;;;;;17.38;58.23;102072.16;4994175;28;19991;-72
2022/09/05 04:41:58;;;;;;;;;;;;;;;17.26;58.65;102084.50;4994201;28;19909;-72
2022/09/05 04:44:44;;;;;;;;;;;;;;;17.27;58.53;102080.72;4992720;28;19913;-74
2022/09/05 04:47:18;;;;;;;;;;;;;;;17.43;58.14;102086.19;5009434;28;19930;-72
2022/09/05 04:49:52;;;;;;;;;;;;;;;17.40;58.29;102086.53;4993774;28;19910;-73
2022/09/05 04:52:24;;;;;;;;;;;;;;;17.42;58.47;102095.44;5027120;28;19959;-71
2022/09/05 04:54:52;;;;;;;;;;;;;;;17.40;58.54;102089.28;4993913;28;20007;-72
2022/09/05 04:57:21;;;;;;;;;;;;;;;17.26;58.69;102089.97;4993691;28;20321;-71
2022/09/05 04:59:49;;;;;;;;;;;;;;;17.34;58.76;102098.19;5011097;28;19909;-70
2022/09/05 05:02:24;;;;;;;;;;;;;;;17.27;59.06;102091.69;5010530;28;19936;-72
2022/09/05 05:04:57;;;;;;;;;;;;;;;17.30;58.98;102091.34;5010094;28;19909;-71
2022/09/05 05:07:28;;;;;;;;;;;;;;;17.25;59.37;102099.22;5008223;28;20005;-71
2022/09/05 05:09:57;;;;;;;;;;;;;;;17.15;59.53;102098.53;5009885;28;19965;-72
2022/09/05 05:12:22;;;;;;;;;;;;;;;17.19;59.73;102099.91;5009834;28;19913;-71
2022/09/05 05:15:01;;;;;;;;;;;;;;;17.20;59.51;102096.13;4993281;28;19920;-72
2022/09/05 05:17:26;;;;;;;;;;;;;;;17.36;59.19;102107.94;4993769;28;19917;-71
2022/09/05 05:20:01;;;;;;;;;;;;;;;17.28;59.51;102104.38;4993182;28;19984;-72
2022/09/05 05:22:26;;;;;;;;;;;;;;;17.35;59.36;102099.91;4993618;28;19910;-71
2022/09/05 05:24:53;;;;;;;;;;;;;;;17.35;59.52;102105.38;5010849;28;19943;-71
2022/09/05 05:27:19;;;;;;;;;;;;;;;17.28;59.84;102107.09;4993419;28;20309;-73
2022/09/05 05:29:47;;;;;;;;;;;;;;;17.34;59.72;102106.38;4993316;28;19970;-71
2022/09/05 05:32:18;;;;;;;;;;;;;;;17.55;59.07;102106.72;4993556;28;19979;-72
2022/09/05 05:34:47;;;;;;;;;;;;;;;17.63;58.98;102114.06;4993298;28;19909;-73
2022/09/05 05:37:18;;;;;;;;;;;;;;;17.54;59.20;102110.50;4992434;28;20023;-72
2022/09/05 05:39:46;;;;;;;;;;;;;;;17.54;59.24;102115.09;5010220;28;20297;-72
2022/09/05 05:42:22;;;;;;;;;;;;;;;17.60;59.32;102115.28;5010888;28;19932;-73
2022/09/05 05:44:50;;;;;;;;;;;;;;;17.68;59.06;102110.81;4992761;28;19979;-72
2022/09/05 05:47:36;;;;;;;;;;;;;;;17.60;59.17;102120.75;4993173;28;19960;-72
2022/09/05 05:50:02;;;;;;;;;;;;;;;17.76;58.84;102113.56;4992742;28;19909;-71
2022/09/05 05:52:27;;;;;;;;;;;;;;;17.69;59.46;102123.47;5010995;28;19909;-72
2022/09/05 05:54:59;;;;;;;;;;;;;;;17.96;58.61;102131.31;4987412;28;19917;-72
2022/09/05 05:57:27;;;;;;;;;;;;;;;17.97;58.65;102130.25;4986341;28;19956;-72
2022/09/05 06:00:00;;;;;;;;;;;;;;;18.10;58.37;102133.31;4980575;28;19964;-73
2022/09/05 06:02:44;;;;;;;;;;;;;;;18.03;58.61;102142.41;4984112;28;19963;-72
2022/09/05 06:05:13;;;;;;;;;;;;;;;18.13;57.83;102143.94;4992047;28;19912;-72
2022/09/05 06:07:51;;;;;;;;;;;;;;;18.11;58.34;102145.97;5009433;28;20366;-72
2022/09/05 06:10:36;;;;;;;;;;;;;;;18.23;58.08;102148.34;4992798;28;19956;-72
2022/09/05 06:13:27;;;;;;;;;;;;;;;18.27;58.20;102149.69;4990619;28;20684;-72
2022/09/05 06:16:11;;;;;;;;;;;;;;;18.18;58.37;102144.22;4956537;28;19914;-72
2022/09/05 06:18:55;;;;;;;;;;;;;;;18.10;58.53;102144.25;4990732;28;19921;-74
2022/09/05 06:21:35;;;;;;;;;;;;;;;18.23;57.97;102153.81;5012710;28;19909;-71
2022/09/05 06:24:03;;;;;;;;;;;;;;;18.40;57.82;102155.47;5009131;28;19944;-71
2022/09/05 06:26:41;;;;;;;;;;;;;;;18.47;57.64;102156.47;5021780;28;19916;-71
2022/09/05 06:29:25;;;;;;;;;;;;;;;18.77;57.08;102157.50;4987756;28;19917;-72
2022/09/05 06:32:29;;;;;;;;;;;;;;;18.66;56.80;102161.53;5000616;28;19960;-72
2022/09/05 06:34:57;;;;;;;;;;;;;;;18.84;56.71;102157.63;4955391;28;19917;-72
2022/09/05 06:37:23;;;;;;;;;;;;;;;18.94;56.62;102152.78;4963268;28;19924;-73
2022/09/05 06:39:58;;;;;;;;;;;;;;;19.03;56.20;102157.16;4972251;28;19925;-72
2022/09/05 06:42:33;;;;;;;;;;;;;;;19.14;56.02;102162.25;4975141;28;19925;-72
2022/09/05 06:45:37;;;;;;;;;;;;;;;19.12;56.17;102150.59;4994623;28;19979;-74
2022/09/05 06:48:17;;;;;;;;;;;;;;;19.01;56.18;102148.28;4965707;28;19914;-74
2022/09/05 06:51:00;;;;;;;;;;;;;;;19.15;55.72;102155.72;4992107;28;19913;-71
2022/09/05 06:53:44;;;;;;;;;;;;;;;19.21;55.81;102157.72;4990301;28;19967;-72
2022/09/05 06:56:09;;;;;;;;;;;;;;;19.24;55.72;102157.38;4972346;28;19921;-71
2022/09/05 06:58:47;;;;;;;;;;;;;;;19.31;55.22;102164.88;4975846;28;20427;-72
2022/09/05 07:01:14;;;;;;;;;;;;;;;19.62;54.81;102160.13;4978751;28;19932;-73
2022/09/05 07:03:54;;;;;;;;;;;;;;;19.41;55.08;102165.44;4974499;28;19910;-72
2022/09/05 07:06:38;;;;;;;;;;;;;;;19.45;55.15;102161.31;4967905;28;19917;-73
2022/09/05 07:09:10;;;;;;;;;;;;;;;19.53;55.21;102166.72;5010695;28;20294;-72
2022/09/05 07:11:45;;;;;;;;;;;;;;;19.60;55.06;102164.97;4974100;28;19950;-72
2022/09/05 07:14:29;;;;;;;;;;;;;;;19.60;55.04;102164.97;4980899;28;19979;-73
2022/09/05 07:17:17;;;;;;;;;;;;;;;19.68;54.84;102177.78;4983948;28;19963;-71
2022/09/05 07:20:12;;;;;;;;;;;;;;;19.92;54.10;102173.94;4984030;28;20421;-72
2022/09/05 07:22:43;;;;;;;;;;;;;;;19.75;54.93;102168.59;4985238;28;20016;-74
2022/09/05 07:25:11;;;;;;;;;;;;;;;19.66;55.18;102169.72;4983140;28;19916;-72
2022/09/05 07:27:46;;;;;;;;;;;;;;;19.73;55.23;102165.19;4976156;28;19910;-72
2022/09/05 07:30:12;;;;;;;;;;;;;;;19.93;54.93;102175.63;4976786;28;19941;-71
2022/09/05 07:32:43;;;;;;;;;;;;;;;20.03;54.36;102176.22;4986446;28;19909;-72
2022/09/05 07:35:15;;;;;;;;;;;;;;;20.32;53.94;102176.19;4978694;28;19909;-73
2022/09/05 07:37:42;;;;;;;;;;;;;;;20.20;54.54;102180.47;4978944;28;19913;-73
2022/09/05 07:40:12;;;;;;;;;;;;;;;20.16;54.98;102184.66;4977132;28;19923;-71
2022/09/05 07:42:45;;;;;;;;;;;;;;;20.28;54.27;102185.91;4991918;28;19913;-73
2022/09/05 07:45:30;;;;;;;;;;;;;;;20.58;53.55;102180.38;4985190;28;19989;-73
2022/09/05 07:48:02;;;;;;;;;;;;;;;20.90;52.90;102184.56;4984676;28;19909;-73
2022/09/05 07:50:29;;;;;;;;;;;;;;;20.99;52.82;102185.28;4986177;28;19924;-74
2022/09/05 07:52:57;;;;;;;;;;;;;;;20.76;53.17;102183.56;5004569;28;19918;-71
2022/09/05 07:55:25;;;;;;;;;;;;;;;21.13;52.24;102178.91;4982413;28;19909;-71
2022/09/05 07:57:53;;;;;;;;;;;;;;;20.92;52.85;102184.38;4969197;28;19914;-73
2022/09/05 08:00:23;;;;;;;;;;;;;;;21.20;52.45;102181.72;4982446;28;19920;-70
2022/09/05 08:02:48;;;;;;;;;;;;;;;21.23;52.35;102184.94;4965476;28;20036;-71
2022/09/05 08:05:15;;;;;;;;;;;;;;;21.26;52.03;102184.53;4992818;28;20360;-73
2022/09/05 08:07:43;;;;;;;;;;;;;;;21.08;52.68;102186.91;4978361;28;19936;-71
2022/09/05 08:10:18;;;;;;;;;;;;;;;21.26;52.51;102179.03;4976789;28;19936;-73
2022/09/05 08:12:51;;;;;;;;;;;;;;;21.55;52.35;102193.72;4981839;28;19917;-71
2022/09/05 08:15:21;;;;;;;;;;;;;;;21.81;51.57;102188.44;4973588;28;20313;-72
2022/09/05 08:17:52;;;;;;;;;;;;;;;21.88;51.43;102182.97;4979199;28;19921;-71
2022/09/05 08:20:38;;;;;;;;;;;;;;;22.02;50.92;102178.38;4984020;28;19996;-73
2022/09/05 08:23:03;;;;;;;;;;;;;;;21.92;51.43;102179.63;4978572;28;20365;-74
2022/09/05 08:25:35;;;;;;;;;;;;;;;21.72;51.78;102184.13;4981592;28;19999;-70
2022/09/05 08:28:18;;;;;;;;;;;;;;;21.92;51.50;102179.63;4979384;28;19937;-71
2022/09/05 08:30:45;;;;;;;;;;;;;;;22.06;51.16;102179.69;4980313;28;19952;-71
2022/09/05 08:33:13;;;;;;;;;;;;;;;22.41;50.31;102172.28;4984159;28;19936;-72
2022/09/05 08:35:51;;;;;;;;;;;;;;;22.64;50.03;102171.97;4972368;28;20004;-73
2022/09/05 08:38:17;;;;;;;;;;;;;;;22.55;50.46;102173.19;4978260;28;20386;-72
2022/09/05 08:40:49;;;;;;;;;;;;;;;22.71;50.07;102167.31;4969153;28;19933;-73
2022/09/05 08:43:26;;;;;;;;;;;;;;;22.80;49.79;102177.09;4992873;28;19992;-74
2022/09/05 08:45:57;;;;;;;;;;;;;;;22.46;50.21;102165.09;4984037;28;20266;-73
2022/09/05 08:48:32;;;;;;;;;;;;;;;22.42;50.56;102169.31;4981892;28;19909;-73
2022/09/05 08:50:57;;;;;;;;;;;;;;;22.58;50.08;102167.28;4994326;28;19917;-74
2022/09/05 08:53:26;;;;;;;;;;;;;;;22.54;50.29;102165.97;4981716;28;19991;-72
2022/09/05 08:55:51;;;;;;;;;;;;;;;22.66;50.26;102169.84;5011783;28;20008;-73
2022/09/05 08:58:23;;;;;;;;;;;;;;;22.60;50.83;102165.16;4990839;28;19968;-73
2022/09/05 09:01:14;;;;;;;;;;;;;;;22.57;50.99;102157.28;5010776;28;19909;-72
2022/09/05 09:03:56;;;;;;;;;;;;;;;22.47;50.93;102161.25;4968787;28;20000;-75
2022/09/05 09:06:39;;;;;;;;;;;;;;;22.65;50.42;102152.44;4973936;28;19917;-72
2022/09/05 09:09:12;;;;;;;;;;;;;;;22.78;50.16;102157.13;5002014;28;19923;-72
2022/09/05 09:11:41;;;;;;;;;;;;;;;23.25;49.46;102158.09;4979416;28;19909;-74
2022/09/05 09:14:18;;;;;;;;;;;;;;;23.16;49.55;102153.84;4978496;28;19909;-71
2022/09/05 09:16:57;;;;;;;;;;;;;;;23.33;49.17;102155.13;4969480;28;19920;-74
2022/09/05 09:19:27;;;;;;;;;;;;;;;23.45;49.05;102158.97;4978995;28;19913;-71
2022/09/05 09:22:11;;;;;;;;;;;;;;;23.49;48.91;102160.25;4975611;28;20347;-72
2022/09/05 09:24:41;;;;;;;;;;;;;;;23.51;48.91;102160.88;4983568;28;19913;-73
2022/09/05 09:27:18;;;;;;;;;;;;;;;23.78;48.42;102147.06;5012278;28;19917;-72
2022/09/05 09:29:43;;;;;;;;;;;;;;;23.78;48.37;102144.31;4973183;28;20000;-72
2022/09/05 09:32:12;;;;;;;;;;;;;;;23.79;48.48;102137.69;4999372;28;19985;-74
2022/09/05 09:34:46;;;;;;;;;;;;;;;24.06;47.99;102142.13;4981994;28;19964;-73
2022/09/05 09:37:22;;;;;;;;;;;;;;;23.88;47.74;102130.91;4978076;28;19917;-74
2022/09/05 09:39:53;;;;;;;;;;;;;;;23.97;47.77;102140.66;4963161;28;19919;-74
2022/09/05 09:42:37;;;;;;;;;;;;;;;24.44;47.24;102135.84;4991092;28;20008;-73
2022/09/05 09:45:13;;;;;;;;;;;;;;;24.80;46.85;102128.84;4978273;28;19956;-75
2022/09/05 09:47:54;;;;;;;;;;;;;;;24.38;47.06;102136.72;4988080;28;19913;-73
2022/09/05 09:50:38;;;;;;;;;;;;;;;24.09;47.93;102136.16;4966791;28;19910;-75
2022/09/05 09:53:22;;;;;;;;;;;;;;;23.97;48.12;102129.59;4976008;28;19917;-73
2022/09/05 09:56:05;;;;;;;;;;;;;;;24.45;47.13;102126.50;4983976;28;19917;-75
2022/09/05 09:58:30;;;;;;;;;;;;;;;24.44;46.91;102133.06;4978696;28;19913;-73
2022/09/05 10:01:05;;;;;;;;;;;;;;;24.38;47.54;102125.63;5012165;28;20028;-75
2022/09/05 10:03:49;;;;;;;;;;;;;;;24.92;46.64;102127.06;4978041;28;19917;-72
2022/09/05 10:06:14;;;;;;;;;;;;;;;24.88;46.11;102120.25;4984520;28;19914;-71
2022/09/05 10:09:02;;;;;;;;;;;;;;;25.06;46.38;102128.69;5008821;28;19923;-72
2022/09/05 10:11:40;;;;;;;;;;;;;;;25.09;46.05;102117.16;4994480;28;19917;-73
2022/09/05 10:14:24;;;;;;;;;;;;;;;25.30;45.35;102112.28;5016237;28;19913;-72
2022/09/05 10:16:52;;;;;;;;;;;;;;;25.16;45.49;102112.41;5000322;28;19968;-75
2022/09/05 10:19:21;;;;;;;;;;;;;;;25.31;45.54;102120.41;4979094;28;19913;-71
2022/09/05 10:21:46;;;;;;;;;;;;;;;25.03;45.93;102117.16;4986194;28;19909;-73
2022/09/05 10:24:18;;;;;;;;;;;;;;;25.00;45.53;102117.63;5007268;28;19910;-73
2022/09/05 10:26:52;;;;;;;;;;;;;;;25.41;44.73;102120.72;4992640;28;19909;-72
2022/09/05 10:29:38;;;;;;;;;;;;;;;25.01;45.16;102114.63;4973419;28;19967;-72
2022/09/05 10:32:05;;;;;;;;;;;;;;;24.61;46.33;102125.13;4970231;28;20448;-72
2022/09/05 10:34:46;;;;;;;;;;;;;;;23.85;47.95;102114.72;4979185;28;19992;-71
2022/09/05 10:37:12;;;;;;;;;;;;;;;23.90;47.82;102103.84;4980799;28;19912;-72
2022/09/05 10:39:42;;;;;;;;;;;;;;;24.07;47.89;102112.53;4999408;28;19964;-74
2022/09/05 10:42:20;;;;;;;;;;;;;;;24.39;46.67;102110.75;4976874;28;19921;-75
2022/09/05 10:44:55;;;;;;;;;;;;;;;24.57;46.51;102108.06;4978297;28;19949;-75
2022/09/05 10:47:23;;;;;;;;;;;;;;;24.58;46.30;102104.25;4977870;28;19917;-72
2022/09/05 10:49:54;;;;;;;;;;;;;;;25.00;45.28;102096.31;4980829;28;19920;-72
2022/09/05 10:52:25;;;;;;;;;;;;;;;24.89;45.33;102103.41;4974511;28;19921;-74
2022/09/05 10:55:17;;;;;;;;;;;;;;;24.83;45.50;102095.16;4985775;28;19916;-73
2022/09/05 10:58:01;;;;;;;;;;;;;;;25.05;45.09;102088.22;4983871;28;19913;-72
2022/09/05 11:00:33;;;;;;;;;;;;;;;24.84;45.87;102102.38;4994958;28;19910;-73
2022/09/05 11:02:59;;;;;;;;;;;;;;;24.42;46.12;102099.22;5010289;28;19913;-72
2022/09/05 11:05:27;;;;;;;;;;;;;;;24.29;46.36;102104.78;4996185;28;19910;-72
2022/09/05 11:08:11;;;;;;;;;;;;;;;23.88;46.85;102092.16;4981580;28;19931;-75
2022/09/05 11:10:36;;;;;;;;;;;;;;;24.40;46.21;102092.22;4989622;28;20001;-73
2022/09/05 11:13:09;;;;;;;;;;;;;;;25.08;45.07;102082.19;5009728;28;20016;-72
2022/09/05 11:15:53;;;;;;;;;;;;;;;24.98;44.81;102076.28;5013105;28;19909;-73
2022/09/05 11:18:25;;;;;;;;;;;;;;;24.74;44.99;102088.19;5002881;28;19918;-73
2022/09/05 11:20:50;;;;;;;;;;;;;;;24.91;44.69;102089.34;4983059;28;19916;-71
2022/09/05 11:23:27;;;;;;;;;;;;;;;24.38;45.95;102092.41;4987839;28;19913;-71
2022/09/05 11:25:57;;;;;;;;;;;;;;;24.26;45.89;102091.41;4987970;28;19957;-72
2022/09/05 11:28:36;;;;;;;;;;;;;;;24.12;45.46;102081.44;4979559;28;19913;-74
2022/09/05 11:31:05;;;;;;;;;;;;;;;24.04;46.20;102086.13;4989064;28;20381;-75
2022/09/05 11:33:41;;;;;;;;;;;;;;;24.00;46.42;102090.44;4989067;28;19910;-71
2022/09/05 11:36:07;;;;;;;;;;;;;;;23.86;46.36;102085.13;4987088;28;19910;-71
2022/09/05 11:38:47;;;;;;;;;;;;;;;23.78;46.75;102081.53;4995047;28;19972;-74
2022/09/05 11:41:31;;;;;;;;;;;;;;;23.84;46.73;102079.81;4973467;28;19940;-72
2022/09/05 11:44:16;;;;;;;;;;;;;;;24.08;46.38;102081.03;4974308;28;19936;-72
2022/09/05 11:47:01;;;;;;;;;;;;;;;23.75;45.88;102064.53;4979249;28;19913;-72
2022/09/05 11:49:31;;;;;;;;;;;;;;;23.52;46.66;102076.88;4992835;28;19916;-74
2022/09/05 11:52:10;;;;;;;;;;;;;;;23.67;46.42;102073.03;4984242;28;19916;-72
2022/09/05 11:54:55;;;;;;;;;;;;;;;23.71;46.16;102079.84;4984520;28;20317;-73
2022/09/05 11:57:35;;;;;;;;;;;;;;;23.52;47.33;102071.34;4980197;28;21139;-73
2022/09/05 12:00:05;;;;;;;;;;;;;;;23.65;47.05;102073.25;5003800;28;19940;-73
2022/09/05 12:02:48;;;;;;;;;;;;;;;23.66;47.14;102076.88;5003627;28;19972;-71
2022/09/05 12:05:30;;;;;;;;;;;;;;;23.53;47.55;102078.56;4998614;28;19916;-74
2022/09/05 12:07:56;;;;;;;;;;;;;;;23.68;46.74;102070.09;4999495;28;19910;-74
2022/09/05 12:10:37;;;;;;;;;;;;;;;23.53;47.12;102078.56;5011523;28;20440;-72
2022/09/05 12:13:15;;;;;;;;;;;;;;;23.44;47.29;102068.81;4986930;28;19921;-72
2022/09/05 12:15:45;;;;;;;;;;;;;;;23.52;47.13;102060.28;5002017;28;20003;-73
2022/09/05 12:18:10;;;;;;;;;;;;;;;23.65;47.70;102064.13;4982936;28;19936;-72
2022/09/05 12:20:38;;;;;;;;;;;;;;;23.73;49.49;102066.66;4985711;28;19910;-73
2022/09/05 12:23:04;;;;;;;;;;;;;;;23.59;50.65;102064.94;4996158;28;20024;-71
2022/09/05 12:25:56;;;;;;;;;;;;;;;23.33;51.35;102061.16;4985850;28;19996;-71
2022/09/05 12:28:26;;;;;;;;;;;;;;;23.46;50.81;102060.28;4998589;28;19936;-73
2022/09/05 12:31:08;;;;;;;;;;;;;;;23.61;50.53;102057.31;5012869;28;19945;-72
2022/09/05 12:33:33;;;;;;;;;;;;;;;23.63;48.60;102060.72;5000313;28;19910;-72
2022/09/05 12:36:09;;;;;;;;;;;;;;;23.65;48.77;102053.06;4986151;28;20012;-72
2022/09/05 12:38:44;;;;;;;;;;;;;;;23.73;48.60;102050.06;4996733;28;19928;-74
2022/09/05 12:41:20;;;;;;;;;;;;;;;23.78;48.52;102047.50;4992914;28;19916;-71
2022/09/05 12:44:00;;;;;;;;;;;;;;;23.67;48.23;102046.25;4981909;28;19929;-74
2022/09/05 12:46:44;;;;;;;;;;;;;;;23.82;47.78;102043.25;4983763;28;19909;-72
2022/09/05 12:49:22;;;;;;;;;;;;;;;23.90;47.57;102045.75;4986184;28;19913;-72
2022/09/05 12:51:56;;;;;;;;;;;;;;;24.13;47.00;102044.41;5015540;28;19914;-71
2022/09/05 12:54:25;;;;;;;;;;;;;;;24.09;47.03;102043.97;4987286;28;20000;-72
2022/09/05 12:56:55;;;;;;;;;;;;;;;24.00;46.76;102046.16;4985192;28;19910;-74
2022/09/05 12:59:23;;;;;;;;;;;;;;;24.02;46.53;102044.00;5000119;28;19921;-74
2022/09/05 13:02:02;;;;;;;;;;;;;;;24.14;46.31;102046.09;4977075;28;20023;-72
2022/09/05 13:04:33;;;;;;;;;;;;;;;23.90;46.54;102045.75;4995142;28;19910;-72
2022/09/05 13:07:21;;;;;;;;;;;;;;;23.89;46.54;102048.75;4995254;28;19909;-71
2022/09/05 13:09:51;;;;;;;;;;;;;;;23.84;46.62;102046.63;4985397;28;19917;-72
2022/09/05 13:12:28;;;;;;;;;;;;;;;23.83;46.44;102040.25;4981519;28;19918;-71
2022/09/05 13:15:04;;;;;;;;;;;;;;;23.98;46.32;102039.13;4984086;28;19952;-71
2022/09/05 13:17:49;;;;;;;;;;;;;;;24.13;45.68;102041.63;4988440;28;19914;-71